sensor_id;sensor_type;location;lat;lon;timestamp;P1;durP1;ratioP1;P2;durP2;ratioP2
65289;SDS011;51893;59.754;10.110;2023-09-30T00:00:01;11.50;;;3.10;;
65289;SDS011;51893;59.754;10.110;2023-09-30T00:02:30;7.90;;;2.90;;
65289;SDS011;51893;59.754;10.110;2023-09-30T00:04:59;10.00;;;2.70;;
65289;SDS011;51893;59.754;10.110;2023-09-30T00:07:27;11.90;;;3.10;;
65289;SDS011;51893;59.754;10.110;2023-09-30T00:09:55;10.30;;;3.30;;
65289;SDS011;51893;59.754;10.110;2023-09-30T00:12:25;9.30;;;2.90;;
65289;SDS011;51893;59.754;10.110;2023-09-30T00:14:55;6.90;;;2.90;;
65289;SDS011;51893;59.754;10.110;2023-09-30T00:17:23;6.30;;;2.90;;
65289;SDS011;51893;59.754;10.110;2023-09-30T00:19:51;14.10;;;3.40;;
65289;SDS011;51893;59.754;10.110;2023-09-30T00:22:20;7.10;;;3.00;;
65289;SDS011;51893;59.754;10.110;2023-09-30T00:24:48;9.10;;;3.20;;
65289;SDS011;51893;59.754;10.110;2023-09-30T00:27:17;10.10;;;3.70;;
65289;SDS011;51893;59.754;10.110;2023-09-30T00:29:45;12.30;;;2.80;;
65289;SDS011;51893;59.754;10.110;2023-09-30T00:32:14;8.40;;;3.00;;
65289;SDS011;51893;59.754;10.110;2023-09-30T00:34:42;5.70;;;2.50;;
65289;SDS011;51893;59.754;10.110;2023-09-30T00:37:10;10.70;;;2.70;;
65289;SDS011;51893;59.754;10.110;2023-09-30T00:39:38;6.90;;;2.50;;
65289;SDS011;51893;59.754;10.110;2023-09-30T00:42:06;5.80;;;2.80;;
65289;SDS011;51893;59.754;10.110;2023-09-30T00:44:34;7.00;;;2.90;;
65289;SDS011;51893;59.754;10.110;2023-09-30T00:47:02;10.20;;;3.00;;
65289;SDS011;51893;59.754;10.110;2023-09-30T00:49:32;6.50;;;2.90;;
65289;SDS011;51893;59.754;10.110;2023-09-30T00:52:02;11.50;;;2.80;;
65289;SDS011;51893;59.754;10.110;2023-09-30T00:54:31;4.90;;;2.30;;
65289;SDS011;51893;59.754;10.110;2023-09-30T00:56:59;5.90;;;2.60;;
65289;SDS011;51893;59.754;10.110;2023-09-30T00:59:31;7.70;;;2.40;;
65289;SDS011;51893;59.754;10.110;2023-09-30T01:02:00;5.10;;;2.20;;
65289;SDS011;51893;59.754;10.110;2023-09-30T01:04:30;7.80;;;2.20;;
65289;SDS011;51893;59.754;10.110;2023-09-30T01:06:57;6.50;;;2.40;;
65289;SDS011;51893;59.754;10.110;2023-09-30T01:09:26;6.30;;;2.40;;
65289;SDS011;51893;59.754;10.110;2023-09-30T01:11:55;10.20;;;2.90;;
65289;SDS011;51893;59.754;10.110;2023-09-30T01:14:28;6.30;;;2.30;;
65289;SDS011;51893;59.754;10.110;2023-09-30T01:17:01;8.00;;;2.20;;
65289;SDS011;51893;59.754;10.110;2023-09-30T01:19:30;7.60;;;1.90;;
65289;SDS011;51893;59.754;10.110;2023-09-30T01:22:00;8.50;;;2.10;;
65289;SDS011;51893;59.754;10.110;2023-09-30T01:24:30;4.40;;;2.00;;
65289;SDS011;51893;59.754;10.110;2023-09-30T01:26:59;12.30;;;2.30;;
65289;SDS011;51893;59.754;10.110;2023-09-30T01:29:27;4.40;;;1.90;;
65289;SDS011;51893;59.754;10.110;2023-09-30T01:31:56;7.20;;;2.20;;
65289;SDS011;51893;59.754;10.110;2023-09-30T01:34:24;10.80;;;2.50;;
65289;SDS011;51893;59.754;10.110;2023-09-30T01:36:52;5.90;;;2.10;;
65289;SDS011;51893;59.754;10.110;2023-09-30T01:39:21;6.60;;;2.40;;
65289;SDS011;51893;59.754;10.110;2023-09-30T01:41:48;7.40;;;2.40;;
65289;SDS011;51893;59.754;10.110;2023-09-30T01:44:16;6.60;;;2.10;;
65289;SDS011;51893;59.754;10.110;2023-09-30T01:46:46;6.90;;;2.30;;
65289;SDS011;51893;59.754;10.110;2023-09-30T01:49:14;6.10;;;2.30;;
65289;SDS011;51893;59.754;10.110;2023-09-30T01:51:41;5.10;;;2.20;;
65289;SDS011;51893;59.754;10.110;2023-09-30T01:54:12;12.70;;;3.70;;
65289;SDS011;51893;59.754;10.110;2023-09-30T01:56:40;6.60;;;2.20;;
65289;SDS011;51893;59.754;10.110;2023-09-30T01:59:08;9.00;;;2.20;;
65289;SDS011;51893;59.754;10.110;2023-09-30T02:01:36;4.30;;;2.30;;
65289;SDS011;51893;59.754;10.110;2023-09-30T02:04:04;6.30;;;2.00;;
65289;SDS011;51893;59.754;10.110;2023-09-30T02:06:34;7.70;;;2.50;;
65289;SDS011;51893;59.754;10.110;2023-09-30T02:09:04;6.00;;;2.30;;
65289;SDS011;51893;59.754;10.110;2023-09-30T02:11:35;10.20;;;2.00;;
65289;SDS011;51893;59.754;10.110;2023-09-30T02:14:05;6.00;;;2.70;;
65289;SDS011;51893;59.754;10.110;2023-09-30T02:16:37;5.80;;;2.10;;
65289;SDS011;51893;59.754;10.110;2023-09-30T02:19:06;10.90;;;2.70;;
65289;SDS011;51893;59.754;10.110;2023-09-30T02:21:34;7.70;;;2.20;;
65289;SDS011;51893;59.754;10.110;2023-09-30T02:24:03;9.50;;;2.50;;
65289;SDS011;51893;59.754;10.110;2023-09-30T02:26:34;4.70;;;2.40;;
65289;SDS011;51893;59.754;10.110;2023-09-30T02:29:02;10.10;;;2.50;;
65289;SDS011;51893;59.754;10.110;2023-09-30T02:31:30;9.50;;;2.70;;
65289;SDS011;51893;59.754;10.110;2023-09-30T02:33:57;6.40;;;2.40;;
65289;SDS011;51893;59.754;10.110;2023-09-30T02:36:26;9.90;;;2.50;;
65289;SDS011;51893;59.754;10.110;2023-09-30T02:38:55;13.20;;;2.80;;
65289;SDS011;51893;59.754;10.110;2023-09-30T02:41:23;7.70;;;2.30;;
65289;SDS011;51893;59.754;10.110;2023-09-30T02:43:51;7.30;;;2.50;;
65289;SDS011;51893;59.754;10.110;2023-09-30T02:46:19;13.60;;;3.10;;
65289;SDS011;51893;59.754;10.110;2023-09-30T02:48:48;6.20;;;2.40;;
65289;SDS011;51893;59.754;10.110;2023-09-30T02:51:16;6.40;;;2.50;;
65289;SDS011;51893;59.754;10.110;2023-09-30T02:53:44;6.90;;;3.10;;
65289;SDS011;51893;59.754;10.110;2023-09-30T02:56:13;9.90;;;2.50;;
65289;SDS011;51893;59.754;10.110;2023-09-30T02:58:41;6.20;;;2.00;;
65289;SDS011;51893;59.754;10.110;2023-09-30T03:01:09;5.40;;;2.40;;
65289;SDS011;51893;59.754;10.110;2023-09-30T03:03:37;7.00;;;2.20;;
65289;SDS011;51893;59.754;10.110;2023-09-30T03:06:06;6.40;;;2.40;;
65289;SDS011;51893;59.754;10.110;2023-09-30T03:08:35;11.90;;;2.80;;
65289;SDS011;51893;59.754;10.110;2023-09-30T03:11:03;4.20;;;2.00;;
65289;SDS011;51893;59.754;10.110;2023-09-30T03:13:35;5.60;;;2.60;;
65289;SDS011;51893;59.754;10.110;2023-09-30T03:16:03;3.40;;;1.90;;
65289;SDS011;51893;59.754;10.110;2023-09-30T03:18:32;4.80;;;2.20;;
65289;SDS011;51893;59.754;10.110;2023-09-30T03:21:01;4.30;;;2.20;;
65289;SDS011;51893;59.754;10.110;2023-09-30T03:23:36;9.70;;;2.80;;
65289;SDS011;51893;59.754;10.110;2023-09-30T03:26:06;9.50;;;2.40;;
65289;SDS011;51893;59.754;10.110;2023-09-30T03:28:41;8.10;;;2.40;;
65289;SDS011;51893;59.754;10.110;2023-09-30T03:31:11;4.30;;;1.90;;
65289;SDS011;51893;59.754;10.110;2023-09-30T03:33:39;3.70;;;1.90;;
65289;SDS011;51893;59.754;10.110;2023-09-30T03:36:08;6.30;;;2.30;;
65289;SDS011;51893;59.754;10.110;2023-09-30T03:38:37;4.40;;;2.10;;
65289;SDS011;51893;59.754;10.110;2023-09-30T03:41:07;5.00;;;1.90;;
65289;SDS011;51893;59.754;10.110;2023-09-30T03:43:36;10.10;;;2.80;;
65289;SDS011;51893;59.754;10.110;2023-09-30T03:46:11;9.80;;;2.60;;
65289;SDS011;51893;59.754;10.110;2023-09-30T03:48:40;4.90;;;2.40;;
65289;SDS011;51893;59.754;10.110;2023-09-30T03:51:11;4.90;;;1.90;;
65289;SDS011;51893;59.754;10.110;2023-09-30T03:53:44;6.30;;;2.70;;
65289;SDS011;51893;59.754;10.110;2023-09-30T03:56:12;8.80;;;2.50;;
65289;SDS011;51893;59.754;10.110;2023-09-30T03:58:42;7.00;;;2.20;;
65289;SDS011;51893;59.754;10.110;2023-09-30T04:01:11;8.50;;;2.70;;
65289;SDS011;51893;59.754;10.110;2023-09-30T04:03:41;3.70;;;2.00;;
65289;SDS011;51893;59.754;10.110;2023-09-30T04:06:12;3.60;;;2.20;;
65289;SDS011;51893;59.754;10.110;2023-09-30T04:08:40;13.70;;;2.60;;
65289;SDS011;51893;59.754;10.110;2023-09-30T04:11:08;6.30;;;2.50;;
65289;SDS011;51893;59.754;10.110;2023-09-30T04:13:38;3.80;;;2.10;;
65289;SDS011;51893;59.754;10.110;2023-09-30T04:16:06;6.40;;;2.10;;
65289;SDS011;51893;59.754;10.110;2023-09-30T04:18:35;5.70;;;2.60;;
65289;SDS011;51893;59.754;10.110;2023-09-30T04:21:03;4.40;;;1.90;;
65289;SDS011;51893;59.754;10.110;2023-09-30T04:23:31;5.40;;;2.50;;
65289;SDS011;51893;59.754;10.110;2023-09-30T04:25:59;8.30;;;2.30;;
65289;SDS011;51893;59.754;10.110;2023-09-30T04:28:27;4.70;;;1.80;;
65289;SDS011;51893;59.754;10.110;2023-09-30T04:30:56;4.70;;;1.90;;
65289;SDS011;51893;59.754;10.110;2023-09-30T04:33:26;4.70;;;1.90;;
65289;SDS011;51893;59.754;10.110;2023-09-30T04:35:55;4.70;;;1.60;;
65289;SDS011;51893;59.754;10.110;2023-09-30T04:38:23;9.20;;;1.80;;
65289;SDS011;51893;59.754;10.110;2023-09-30T04:40:52;6.50;;;1.80;;
65289;SDS011;51893;59.754;10.110;2023-09-30T04:43:22;5.90;;;1.60;;
65289;SDS011;51893;59.754;10.110;2023-09-30T04:45:50;5.30;;;1.80;;
65289;SDS011;51893;59.754;10.110;2023-09-30T04:48:21;6.10;;;1.70;;
65289;SDS011;51893;59.754;10.110;2023-09-30T04:50:50;4.20;;;1.50;;
65289;SDS011;51893;59.754;10.110;2023-09-30T04:53:22;4.60;;;1.90;;
65289;SDS011;51893;59.754;10.110;2023-09-30T04:55:51;6.60;;;2.30;;
65289;SDS011;51893;59.754;10.110;2023-09-30T04:58:20;6.90;;;1.80;;
65289;SDS011;51893;59.754;10.110;2023-09-30T05:00:51;5.90;;;1.80;;
65289;SDS011;51893;59.754;10.110;2023-09-30T05:03:19;11.00;;;3.00;;
65289;SDS011;51893;59.754;10.110;2023-09-30T05:05:49;8.80;;;1.80;;
65289;SDS011;51893;59.754;10.110;2023-09-30T05:08:22;4.90;;;1.90;;
65289;SDS011;51893;59.754;10.110;2023-09-30T05:10:51;5.10;;;1.70;;
65289;SDS011;51893;59.754;10.110;2023-09-30T05:13:23;3.80;;;1.50;;
65289;SDS011;51893;59.754;10.110;2023-09-30T05:15:51;6.00;;;1.70;;
65289;SDS011;51893;59.754;10.110;2023-09-30T05:18:19;6.90;;;1.90;;
65289;SDS011;51893;59.754;10.110;2023-09-30T05:20:48;7.30;;;1.70;;
65289;SDS011;51893;59.754;10.110;2023-09-30T05:23:17;2.80;;;1.70;;
65289;SDS011;51893;59.754;10.110;2023-09-30T05:25:46;5.40;;;2.20;;
65289;SDS011;51893;59.754;10.110;2023-09-30T05:28:14;4.00;;;2.00;;
65289;SDS011;51893;59.754;10.110;2023-09-30T05:30:43;7.00;;;2.10;;
65289;SDS011;51893;59.754;10.110;2023-09-30T05:33:11;6.40;;;1.90;;
65289;SDS011;51893;59.754;10.110;2023-09-30T05:35:42;2.60;;;1.90;;
65289;SDS011;51893;59.754;10.110;2023-09-30T05:38:10;2.90;;;1.70;;
65289;SDS011;51893;59.754;10.110;2023-09-30T05:40:42;4.60;;;1.80;;
65289;SDS011;51893;59.754;10.110;2023-09-30T05:43:12;5.50;;;1.90;;
65289;SDS011;51893;59.754;10.110;2023-09-30T05:45:42;7.80;;;2.10;;
65289;SDS011;51893;59.754;10.110;2023-09-30T05:48:17;5.10;;;1.30;;
65289;SDS011;51893;59.754;10.110;2023-09-30T05:50:46;5.40;;;1.40;;
65289;SDS011;51893;59.754;10.110;2023-09-30T05:53:15;4.80;;;1.20;;
65289;SDS011;51893;59.754;10.110;2023-09-30T05:55:43;8.70;;;1.70;;
65289;SDS011;51893;59.754;10.110;2023-09-30T05:58:14;8.80;;;1.90;;
65289;SDS011;51893;59.754;10.110;2023-09-30T06:00:47;7.60;;;1.50;;
65289;SDS011;51893;59.754;10.110;2023-09-30T06:03:15;4.70;;;2.00;;
65289;SDS011;51893;59.754;10.110;2023-09-30T06:05:44;6.30;;;1.80;;
65289;SDS011;51893;59.754;10.110;2023-09-30T06:08:13;7.70;;;3.80;;
65289;SDS011;51893;59.754;10.110;2023-09-30T06:10:42;15.20;;;9.00;;
65289;SDS011;51893;59.754;10.110;2023-09-30T06:13:11;8.10;;;2.40;;
65289;SDS011;51893;59.754;10.110;2023-09-30T06:15:41;6.30;;;1.90;;
65289;SDS011;51893;59.754;10.110;2023-09-30T06:18:10;3.60;;;1.80;;
65289;SDS011;51893;59.754;10.110;2023-09-30T06:20:39;3.30;;;1.40;;
65289;SDS011;51893;59.754;10.110;2023-09-30T06:23:09;3.70;;;1.30;;
65289;SDS011;51893;59.754;10.110;2023-09-30T06:25:38;7.50;;;2.60;;
65289;SDS011;51893;59.754;10.110;2023-09-30T06:28:07;8.70;;;1.60;;
65289;SDS011;51893;59.754;10.110;2023-09-30T06:30:36;7.30;;;2.00;;
65289;SDS011;51893;59.754;10.110;2023-09-30T06:33:05;6.50;;;1.70;;
65289;SDS011;51893;59.754;10.110;2023-09-30T06:35:33;9.00;;;2.40;;
65289;SDS011;51893;59.754;10.110;2023-09-30T06:38:06;7.10;;;2.10;;
65289;SDS011;51893;59.754;10.110;2023-09-30T06:40:40;6.30;;;1.90;;
65289;SDS011;51893;59.754;10.110;2023-09-30T06:43:10;8.80;;;1.80;;
65289;SDS011;51893;59.754;10.110;2023-09-30T06:45:38;3.50;;;1.60;;
65289;SDS011;51893;59.754;10.110;2023-09-30T06:48:11;2.80;;;1.70;;
65289;SDS011;51893;59.754;10.110;2023-09-30T06:50:44;5.20;;;1.70;;
65289;SDS011;51893;59.754;10.110;2023-09-30T06:53:17;6.50;;;1.70;;
65289;SDS011;51893;59.754;10.110;2023-09-30T06:55:52;4.60;;;2.20;;
65289;SDS011;51893;59.754;10.110;2023-09-30T06:58:21;3.70;;;1.60;;
65289;SDS011;51893;59.754;10.110;2023-09-30T07:00:51;2.70;;;1.40;;
65289;SDS011;51893;59.754;10.110;2023-09-30T07:03:21;3.70;;;1.80;;
65289;SDS011;51893;59.754;10.110;2023-09-30T07:05:55;6.90;;;1.80;;
65289;SDS011;51893;59.754;10.110;2023-09-30T07:08:26;4.30;;;1.50;;
65289;SDS011;51893;59.754;10.110;2023-09-30T07:10:57;6.40;;;2.00;;
65289;SDS011;51893;59.754;10.110;2023-09-30T07:13:25;6.20;;;1.50;;
65289;SDS011;51893;59.754;10.110;2023-09-30T07:15:53;2.50;;;1.60;;
65289;SDS011;51893;59.754;10.110;2023-09-30T07:18:21;4.00;;;1.80;;
65289;SDS011;51893;59.754;10.110;2023-09-30T07:20:49;4.00;;;2.10;;
65289;SDS011;51893;59.754;10.110;2023-09-30T07:23:19;9.70;;;2.00;;
65289;SDS011;51893;59.754;10.110;2023-09-30T07:25:47;5.70;;;2.00;;
65289;SDS011;51893;59.754;10.110;2023-09-30T07:28:17;6.20;;;1.80;;
65289;SDS011;51893;59.754;10.110;2023-09-30T07:30:45;7.10;;;1.60;;
65289;SDS011;51893;59.754;10.110;2023-09-30T07:33:13;8.50;;;1.80;;
65289;SDS011;51893;59.754;10.110;2023-09-30T07:35:41;7.00;;;2.30;;
65289;SDS011;51893;59.754;10.110;2023-09-30T07:38:09;4.60;;;1.60;;
65289;SDS011;51893;59.754;10.110;2023-09-30T07:40:39;7.00;;;1.70;;
65289;SDS011;51893;59.754;10.110;2023-09-30T07:43:10;2.00;;;1.50;;
65289;SDS011;51893;59.754;10.110;2023-09-30T07:45:40;6.30;;;1.80;;
65289;SDS011;51893;59.754;10.110;2023-09-30T07:48:11;5.70;;;1.80;;
65289;SDS011;51893;59.754;10.110;2023-09-30T07:50:39;6.50;;;2.10;;
65289;SDS011;51893;59.754;10.110;2023-09-30T07:53:08;4.80;;;1.70;;
65289;SDS011;51893;59.754;10.110;2023-09-30T07:55:36;11.30;;;1.70;;
65289;SDS011;51893;59.754;10.110;2023-09-30T07:58:04;4.40;;;1.50;;
65289;SDS011;51893;59.754;10.110;2023-09-30T08:00:32;9.30;;;2.10;;
65289;SDS011;51893;59.754;10.110;2023-09-30T08:03:01;3.40;;;1.50;;
65289;SDS011;51893;59.754;10.110;2023-09-30T08:05:30;10.70;;;1.70;;
65289;SDS011;51893;59.754;10.110;2023-09-30T08:07:57;8.70;;;2.00;;
65289;SDS011;51893;59.754;10.110;2023-09-30T08:10:26;4.50;;;1.80;;
65289;SDS011;51893;59.754;10.110;2023-09-30T08:12:54;6.70;;;2.90;;
65289;SDS011;51893;59.754;10.110;2023-09-30T08:15:25;2.80;;;1.40;;
65289;SDS011;51893;59.754;10.110;2023-09-30T08:17:53;3.20;;;1.40;;
65289;SDS011;51893;59.754;10.110;2023-09-30T08:20:22;3.20;;;1.60;;
65289;SDS011;51893;59.754;10.110;2023-09-30T08:22:49;5.10;;;1.30;;
65289;SDS011;51893;59.754;10.110;2023-09-30T08:25:18;4.20;;;1.20;;
65289;SDS011;51893;59.754;10.110;2023-09-30T08:27:46;7.60;;;2.30;;
65289;SDS011;51893;59.754;10.110;2023-09-30T08:30:17;2.40;;;1.30;;
65289;SDS011;51893;59.754;10.110;2023-09-30T08:32:47;6.80;;;1.30;;
65289;SDS011;51893;59.754;10.110;2023-09-30T08:35:16;8.20;;;1.60;;
65289;SDS011;51893;59.754;10.110;2023-09-30T08:37:43;8.70;;;1.30;;
65289;SDS011;51893;59.754;10.110;2023-09-30T08:40:12;2.90;;;1.50;;
65289;SDS011;51893;59.754;10.110;2023-09-30T08:42:40;6.60;;;1.40;;
65289;SDS011;51893;59.754;10.110;2023-09-30T08:45:12;5.60;;;1.40;;
65289;SDS011;51893;59.754;10.110;2023-09-30T08:47:42;4.30;;;1.40;;
65289;SDS011;51893;59.754;10.110;2023-09-30T08:50:11;5.30;;;1.60;;
65289;SDS011;51893;59.754;10.110;2023-09-30T08:52:43;6.50;;;3.10;;
65289;SDS011;51893;59.754;10.110;2023-09-30T08:55:13;5.50;;;1.30;;
65289;SDS011;51893;59.754;10.110;2023-09-30T08:57:42;3.30;;;1.40;;
65289;SDS011;51893;59.754;10.110;2023-09-30T09:00:12;3.00;;;1.00;;
65289;SDS011;51893;59.754;10.110;2023-09-30T09:02:42;4.40;;;1.40;;
65289;SDS011;51893;59.754;10.110;2023-09-30T09:05:11;3.00;;;1.40;;
65289;SDS011;51893;59.754;10.110;2023-09-30T09:07:39;3.70;;;1.00;;
65289;SDS011;51893;59.754;10.110;2023-09-30T09:10:10;2.90;;;1.20;;
65289;SDS011;51893;59.754;10.110;2023-09-30T09:12:42;4.60;;;1.40;;
65289;SDS011;51893;59.754;10.110;2023-09-30T09:15:22;2.60;;;1.10;;
65289;SDS011;51893;59.754;10.110;2023-09-30T09:17:52;4.80;;;1.20;;
65289;SDS011;51893;59.754;10.110;2023-09-30T09:20:22;3.00;;;1.20;;
65289;SDS011;51893;59.754;10.110;2023-09-30T09:22:53;1.40;;;1.10;;
65289;SDS011;51893;59.754;10.110;2023-09-30T09:25:24;1.60;;;1.00;;
65289;SDS011;51893;59.754;10.110;2023-09-30T09:27:53;2.20;;;1.10;;
65289;SDS011;51893;59.754;10.110;2023-09-30T09:30:24;2.80;;;1.20;;
65289;SDS011;51893;59.754;10.110;2023-09-30T09:33:13;6.30;;;1.10;;
65289;SDS011;51893;59.754;10.110;2023-09-30T09:35:47;4.30;;;1.20;;
65289;SDS011;51893;59.754;10.110;2023-09-30T09:38:16;2.30;;;1.00;;
65289;SDS011;51893;59.754;10.110;2023-09-30T09:40:44;4.70;;;1.20;;
65289;SDS011;51893;59.754;10.110;2023-09-30T09:43:12;2.60;;;1.20;;
65289;SDS011;51893;59.754;10.110;2023-09-30T09:45:41;2.10;;;1.10;;
65289;SDS011;51893;59.754;10.110;2023-09-30T09:48:11;1.90;;;1.10;;
65289;SDS011;51893;59.754;10.110;2023-09-30T09:50:40;3.50;;;0.70;;
65289;SDS011;51893;59.754;10.110;2023-09-30T09:53:11;4.00;;;1.10;;
65289;SDS011;51893;59.754;10.110;2023-09-30T09:55:42;1.80;;;1.00;;
65289;SDS011;51893;59.754;10.110;2023-09-30T09:58:11;0.90;;;0.70;;
65289;SDS011;51893;59.754;10.110;2023-09-30T10:00:40;1.10;;;0.70;;
65289;SDS011;51893;59.754;10.110;2023-09-30T10:03:09;1.20;;;0.60;;
65289;SDS011;51893;59.754;10.110;2023-09-30T10:05:38;3.00;;;1.00;;
65289;SDS011;51893;59.754;10.110;2023-09-30T10:08:13;1.80;;;1.10;;
65289;SDS011;51893;59.754;10.110;2023-09-30T10:10:45;2.10;;;1.00;;
65289;SDS011;51893;59.754;10.110;2023-09-30T10:25:34;0.80;;;0.50;;
65289;SDS011;51893;59.754;10.110;2023-09-30T10:31:11;1.00;;;0.60;;
65289;SDS011;51893;59.754;10.110;2023-09-30T10:36:36;1.20;;;0.50;;
65289;SDS011;51893;59.754;10.110;2023-09-30T10:39:13;1.00;;;0.50;;
65289;SDS011;51893;59.754;10.110;2023-09-30T10:51:51;0.60;;;0.60;;
65289;SDS011;51893;59.754;10.110;2023-09-30T10:54:30;0.90;;;0.50;;
65289;SDS011;51893;59.754;10.110;2023-09-30T10:57:01;0.50;;;0.40;;
65289;SDS011;51893;59.754;10.110;2023-09-30T10:59:32;1.40;;;0.60;;
65289;SDS011;51893;59.754;10.110;2023-09-30T11:02:03;1.10;;;0.70;;
65289;SDS011;51893;59.754;10.110;2023-09-30T11:04:47;0.90;;;0.80;;
65289;SDS011;51893;59.754;10.110;2023-09-30T11:07:22;1.80;;;0.80;;
65289;SDS011;51893;59.754;10.110;2023-09-30T11:09:53;2.10;;;0.90;;
65289;SDS011;51893;59.754;10.110;2023-09-30T11:12:22;2.20;;;1.00;;
65289;SDS011;51893;59.754;10.110;2023-09-30T11:14:59;1.10;;;0.60;;
65289;SDS011;51893;59.754;10.110;2023-09-30T11:17:29;2.30;;;0.60;;
65289;SDS011;51893;59.754;10.110;2023-09-30T11:19:58;0.70;;;0.50;;
65289;SDS011;51893;59.754;10.110;2023-09-30T11:22:25;0.60;;;0.50;;
65289;SDS011;51893;59.754;10.110;2023-09-30T11:24:56;0.80;;;0.50;;
65289;SDS011;51893;59.754;10.110;2023-09-30T11:27:24;0.90;;;0.40;;
65289;SDS011;51893;59.754;10.110;2023-09-30T11:29:53;0.70;;;0.70;;
65289;SDS011;51893;59.754;10.110;2023-09-30T11:32:28;1.00;;;0.40;;
65289;SDS011;51893;59.754;10.110;2023-09-30T11:34:57;0.70;;;0.60;;
65289;SDS011;51893;59.754;10.110;2023-09-30T11:37:34;0.60;;;0.50;;
65289;SDS011;51893;59.754;10.110;2023-09-30T11:40:10;0.70;;;0.70;;
65289;SDS011;51893;59.754;10.110;2023-09-30T11:42:41;0.70;;;0.60;;
65289;SDS011;51893;59.754;10.110;2023-09-30T11:45:20;1.20;;;0.50;;
65289;SDS011;51893;59.754;10.110;2023-09-30T11:47:50;0.70;;;0.50;;
65289;SDS011;51893;59.754;10.110;2023-09-30T11:50:21;2.30;;;0.60;;
65289;SDS011;51893;59.754;10.110;2023-09-30T11:52:52;1.60;;;0.60;;
65289;SDS011;51893;59.754;10.110;2023-09-30T11:55:20;0.60;;;0.60;;
65289;SDS011;51893;59.754;10.110;2023-09-30T11:57:48;0.90;;;0.60;;
65289;SDS011;51893;59.754;10.110;2023-09-30T12:00:18;0.50;;;0.50;;
65289;SDS011;51893;59.754;10.110;2023-09-30T12:02:46;0.60;;;0.50;;
65289;SDS011;51893;59.754;10.110;2023-09-30T12:05:14;0.60;;;0.50;;
65289;SDS011;51893;59.754;10.110;2023-09-30T12:07:42;0.50;;;0.40;;
65289;SDS011;51893;59.754;10.110;2023-09-30T12:10:10;0.80;;;0.60;;
65289;SDS011;51893;59.754;10.110;2023-09-30T12:12:39;0.80;;;0.40;;
65289;SDS011;51893;59.754;10.110;2023-09-30T12:15:08;0.80;;;0.60;;
65289;SDS011;51893;59.754;10.110;2023-09-30T12:17:39;0.90;;;0.40;;
65289;SDS011;51893;59.754;10.110;2023-09-30T12:20:08;0.50;;;0.50;;
65289;SDS011;51893;59.754;10.110;2023-09-30T12:22:37;1.80;;;0.40;;
65289;SDS011;51893;59.754;10.110;2023-09-30T12:25:06;1.00;;;0.40;;
65289;SDS011;51893;59.754;10.110;2023-09-30T12:27:36;0.30;;;0.30;;
65289;SDS011;51893;59.754;10.110;2023-09-30T12:30:04;0.20;;;0.20;;
65289;SDS011;51893;59.754;10.110;2023-09-30T12:32:36;0.90;;;0.30;;
65289;SDS011;51893;59.754;10.110;2023-09-30T12:35:04;0.20;;;0.20;;
65289;SDS011;51893;59.754;10.110;2023-09-30T12:37:33;0.50;;;0.30;;
65289;SDS011;51893;59.754;10.110;2023-09-30T12:40:01;0.30;;;0.30;;
65289;SDS011;51893;59.754;10.110;2023-09-30T12:42:30;1.10;;;0.40;;
65289;SDS011;51893;59.754;10.110;2023-09-30T12:44:58;0.30;;;0.30;;
65289;SDS011;51893;59.754;10.110;2023-09-30T12:47:28;1.30;;;0.50;;
65289;SDS011;51893;59.754;10.110;2023-09-30T12:49:56;0.40;;;0.40;;
65289;SDS011;51893;59.754;10.110;2023-09-30T12:52:24;1.00;;;0.50;;
65289;SDS011;51893;59.754;10.110;2023-09-30T12:54:53;0.60;;;0.40;;
65289;SDS011;51893;59.754;10.110;2023-09-30T12:57:21;1.70;;;0.40;;
65289;SDS011;51893;59.754;10.110;2023-09-30T12:59:50;1.10;;;0.40;;
65289;SDS011;51893;59.754;10.110;2023-09-30T13:02:19;0.40;;;0.40;;
65289;SDS011;51893;59.754;10.110;2023-09-30T13:04:49;0.30;;;0.30;;
65289;SDS011;51893;59.754;10.110;2023-09-30T13:07:18;0.50;;;0.50;;
65289;SDS011;51893;59.754;10.110;2023-09-30T13:09:46;1.00;;;0.50;;
65289;SDS011;51893;59.754;10.110;2023-09-30T13:12:15;0.30;;;0.30;;
65289;SDS011;51893;59.754;10.110;2023-09-30T13:14:44;0.40;;;0.40;;
65289;SDS011;51893;59.754;10.110;2023-09-30T13:17:12;0.40;;;0.40;;
65289;SDS011;51893;59.754;10.110;2023-09-30T13:19:42;2.10;;;0.60;;
65289;SDS011;51893;59.754;10.110;2023-09-30T13:22:09;0.40;;;0.40;;
65289;SDS011;51893;59.754;10.110;2023-09-30T13:24:45;0.20;;;0.20;;
65289;SDS011;51893;59.754;10.110;2023-09-30T13:27:14;0.60;;;0.50;;
65289;SDS011;51893;59.754;10.110;2023-09-30T13:29:45;0.70;;;0.50;;
65289;SDS011;51893;59.754;10.110;2023-09-30T13:32:13;0.40;;;0.40;;
65289;SDS011;51893;59.754;10.110;2023-09-30T13:34:42;0.30;;;0.30;;
65289;SDS011;51893;59.754;10.110;2023-09-30T13:37:11;0.50;;;0.50;;
65289;SDS011;51893;59.754;10.110;2023-09-30T13:39:41;0.50;;;0.50;;
65289;SDS011;51893;59.754;10.110;2023-09-30T13:42:09;0.60;;;0.60;;
65289;SDS011;51893;59.754;10.110;2023-09-30T13:44:38;0.60;;;0.40;;
65289;SDS011;51893;59.754;10.110;2023-09-30T13:47:05;0.50;;;0.50;;
65289;SDS011;51893;59.754;10.110;2023-09-30T13:49:36;0.60;;;0.50;;
65289;SDS011;51893;59.754;10.110;2023-09-30T13:52:04;0.80;;;0.80;;
65289;SDS011;51893;59.754;10.110;2023-09-30T13:54:33;0.60;;;0.60;;
65289;SDS011;51893;59.754;10.110;2023-09-30T13:57:02;0.50;;;0.50;;
65289;SDS011;51893;59.754;10.110;2023-09-30T13:59:34;0.40;;;0.40;;
65289;SDS011;51893;59.754;10.110;2023-09-30T14:02:08;1.90;;;0.60;;
65289;SDS011;51893;59.754;10.110;2023-09-30T14:04:36;1.10;;;0.70;;
65289;SDS011;51893;59.754;10.110;2023-09-30T14:07:09;0.70;;;0.60;;
65289;SDS011;51893;59.754;10.110;2023-09-30T14:09:37;1.10;;;1.00;;
65289;SDS011;51893;59.754;10.110;2023-09-30T14:12:07;1.20;;;0.80;;
65289;SDS011;51893;59.754;10.110;2023-09-30T14:14:35;0.60;;;0.60;;
65289;SDS011;51893;59.754;10.110;2023-09-30T14:17:04;0.80;;;0.60;;
65289;SDS011;51893;59.754;10.110;2023-09-30T14:19:38;0.60;;;0.50;;
65289;SDS011;51893;59.754;10.110;2023-09-30T14:22:06;0.90;;;0.80;;
65289;SDS011;51893;59.754;10.110;2023-09-30T14:24:36;0.80;;;0.70;;
65289;SDS011;51893;59.754;10.110;2023-09-30T14:27:04;1.40;;;1.10;;
65289;SDS011;51893;59.754;10.110;2023-09-30T14:29:32;1.00;;;0.80;;
65289;SDS011;51893;59.754;10.110;2023-09-30T14:32:01;2.00;;;1.00;;
65289;SDS011;51893;59.754;10.110;2023-09-30T14:34:30;1.10;;;1.00;;
65289;SDS011;51893;59.754;10.110;2023-09-30T14:36:58;1.10;;;0.90;;
65289;SDS011;51893;59.754;10.110;2023-09-30T14:39:26;1.10;;;1.00;;
65289;SDS011;51893;59.754;10.110;2023-09-30T14:41:56;1.70;;;1.20;;
65289;SDS011;51893;59.754;10.110;2023-09-30T14:44:24;2.00;;;1.30;;
65289;SDS011;51893;59.754;10.110;2023-09-30T14:46:53;4.00;;;1.20;;
65289;SDS011;51893;59.754;10.110;2023-09-30T14:49:24;2.10;;;1.20;;
65289;SDS011;51893;59.754;10.110;2023-09-30T14:51:52;2.10;;;1.30;;
65289;SDS011;51893;59.754;10.110;2023-09-30T14:54:20;2.30;;;1.20;;
65289;SDS011;51893;59.754;10.110;2023-09-30T14:56:49;1.80;;;1.00;;
65289;SDS011;51893;59.754;10.110;2023-09-30T14:59:17;2.30;;;1.30;;
65289;SDS011;51893;59.754;10.110;2023-09-30T15:01:46;1.60;;;1.30;;
65289;SDS011;51893;59.754;10.110;2023-09-30T15:04:15;1.10;;;1.00;;
65289;SDS011;51893;59.754;10.110;2023-09-30T15:06:44;3.20;;;1.10;;
65289;SDS011;51893;59.754;10.110;2023-09-30T15:09:13;2.20;;;1.40;;
65289;SDS011;51893;59.754;10.110;2023-09-30T15:11:42;1.60;;;1.20;;
65289;SDS011;51893;59.754;10.110;2023-09-30T15:14:10;2.00;;;1.10;;